createdAt,value
2023-01-25T00:01:20.280Z,25.50
2023-01-25T00:06:22.251Z,25.00
2023-01-25T00:11:24.198Z,25.90
2023-01-25T00:16:26.161Z,25.70
2023-01-25T00:21:28.724Z,29.30
2023-01-25T00:26:35.086Z,25.30
2023-01-25T00:32:06.609Z,33.80
2023-01-25T00:37:17.569Z,32.10
2023-01-25T00:42:20.238Z,35.60
2023-01-25T00:47:22.408Z,35.20
2023-01-25T00:52:24.469Z,35.60
2023-01-25T00:57:26.400Z,31.90
2023-01-25T01:02:30.547Z,29.80
2023-01-25T01:07:33.424Z,35.80
2023-01-25T01:12:35.415Z,35.20
2023-01-25T01:17:37.340Z,29.30
2023-01-25T01:22:40.071Z,35.50
2023-01-25T01:27:42.015Z,31.10
2023-01-25T01:32:44.748Z,33.20
2023-01-25T01:37:47.489Z,38.80
2023-01-25T01:43:00.478Z,34.50
2023-01-25T01:48:02.726Z,35.90
2023-01-25T01:53:04.670Z,31.90
2023-01-25T01:58:07.483Z,38.80
2023-01-25T02:03:11.524Z,45.60
2023-01-25T02:08:15.360Z,38.60
2023-01-25T02:13:18.867Z,42.70
2023-01-25T02:18:20.877Z,35.80
2023-01-25T02:23:48.251Z,33.70
2023-01-25T02:29:04.057Z,32.80
2023-01-25T02:34:06.042Z,38.30
2023-01-25T02:39:19.302Z,23.00
2023-01-25T02:44:29.374Z,33.40
2023-01-25T02:49:36.460Z,36.80
2023-01-25T02:54:38.702Z,39.90
2023-01-25T02:59:40.819Z,40.20
2023-01-25T03:04:42.705Z,36.30
2023-01-25T03:09:44.581Z,33.80
2023-01-25T03:14:46.713Z,41.50
2023-01-25T03:19:48.623Z,39.70
2023-01-25T03:24:51.262Z,31.40
2023-01-25T03:29:53.193Z,24.10
2023-01-25T03:34:55.206Z,22.90
2023-01-25T03:39:57.898Z,19.50
2023-01-25T03:44:59.859Z,18.80
2023-01-25T03:50:01.818Z,28.80
2023-01-25T03:55:05.010Z,30.30
2023-01-25T04:00:08.560Z,23.00
2023-01-25T04:05:10.877Z,33.70
2023-01-25T04:10:13.151Z,21.30
2023-01-25T04:15:15.165Z,26.60
2023-01-25T04:20:17.217Z,26.80
2023-01-25T04:25:22.417Z,23.30
2023-01-25T04:30:24.782Z,23.90
2023-01-25T04:35:26.795Z,28.40
2023-01-25T04:40:28.891Z,25.60
2023-01-25T04:45:30.875Z,25.90
2023-01-25T04:50:32.883Z,31.70
2023-01-25T04:55:35.508Z,28.70
2023-01-25T05:00:37.422Z,21.50
2023-01-25T05:05:43.957Z,32.80
2023-01-25T05:10:46.246Z,31.70
2023-01-25T05:15:48.319Z,19.70
2023-01-25T05:20:55.695Z,28.80
2023-01-25T05:26:16.857Z,30.40
2023-01-25T05:31:18.978Z,31.40
2023-01-25T05:36:21.255Z,26.50
2023-01-25T05:41:23.318Z,28.10
2023-01-25T05:46:27.338Z,26.10
2023-01-25T05:51:29.383Z,30.80
2023-01-25T05:56:32.698Z,19.80
2023-01-25T06:01:34.673Z,27.60
2023-01-25T06:06:36.652Z,32.60
2023-01-25T06:11:38.925Z,28.00
2023-01-25T06:16:41.270Z,26.60
2023-01-25T06:21:43.200Z,21.60
2023-01-25T06:26:45.030Z,23.10
2023-01-25T06:31:47.563Z,34.40
2023-01-25T06:36:49.686Z,27.10
2023-01-25T06:41:51.758Z,34.60
2023-01-25T06:46:53.886Z,34.80
2023-01-25T06:51:55.965Z,28.00
2023-01-25T06:56:57.955Z,37.00
2023-01-25T07:02:06.134Z,31.00
2023-01-25T07:07:11.907Z,37.30
2023-01-25T07:12:14.006Z,30.00
2023-01-25T07:17:16.069Z,35.60
2023-01-25T07:22:18.231Z,28.00
2023-01-25T07:27:20.212Z,36.50
2023-01-25T07:32:22.735Z,39.80
2023-01-25T07:37:27.414Z,26.60
2023-01-25T07:42:29.370Z,35.20
2023-01-25T07:47:31.368Z,41.00
2023-01-25T07:52:34.007Z,45.50
2023-01-25T07:57:35.977Z,51.70
2023-01-25T08:02:38.120Z,39.50
2023-01-25T08:07:40.231Z,44.40
2023-01-25T08:12:46.392Z,46.50
2023-01-25T08:17:48.392Z,51.40
2023-01-25T08:22:52.031Z,33.50
2023-01-25T08:27:54.293Z,23.80
2023-01-25T08:32:59.239Z,43.20
2023-01-25T08:38:01.221Z,32.90
2023-01-25T08:43:03.556Z,39.10
2023-01-25T08:48:06.282Z,42.10
2023-01-25T08:53:08.447Z,37.10
2023-01-25T08:58:12.471Z,28.80
2023-01-25T09:03:15.697Z,32.20
2023-01-25T09:08:18.270Z,38.20
2023-01-25T09:13:20.659Z,25.50
2023-01-25T09:18:23.081Z,31.60
2023-01-25T09:23:26.675Z,28.50
2023-01-25T09:28:30.386Z,26.10
2023-01-25T09:33:36.273Z,25.40
2023-01-25T09:38:39.079Z,27.90
2023-01-25T09:43:56.868Z,29.30
2023-01-25T09:49:11.594Z,30.40
2023-01-25T09:54:18.201Z,32.10
2023-01-25T09:59:27.224Z,31.30
2023-01-25T10:04:37.123Z,29.50
2023-01-25T10:09:48.052Z,35.20
2023-01-25T10:14:51.291Z,42.80
2023-01-25T10:20:14.971Z,33.50
2023-01-25T10:25:50.919Z,38.20
2023-01-25T10:30:56.535Z,37.50
2023-01-25T10:36:03.482Z,32.70
2023-01-25T10:41:16.637Z,29.80
2023-01-25T10:46:25.219Z,35.30
2023-01-25T10:51:33.240Z,37.70
2023-01-25T10:56:38.940Z,37.30
2023-01-25T11:01:41.019Z,23.60
2023-01-25T11:06:49.981Z,28.50
2023-01-25T11:12:00.482Z,37.30
2023-01-25T11:17:05.397Z,35.10
2023-01-25T11:22:33.101Z,34.00
2023-01-25T11:27:46.873Z,29.40
2023-01-25T11:32:49.823Z,30.10
2023-01-25T11:38:11.687Z,30.10
2023-01-25T11:43:45.356Z,28.80
2023-01-25T11:49:02.733Z,31.00
2023-01-25T11:54:32.856Z,28.00
2023-01-25T11:59:55.975Z,28.50
2023-01-25T12:05:23.481Z,33.10
2023-01-25T12:10:31.406Z,28.50
2023-01-25T12:16:32.646Z,26.20
2023-01-25T12:21:59.130Z,27.90
2023-01-25T12:27:19.624Z,28.30
2023-01-25T12:32:35.440Z,28.80
2023-01-25T12:37:40.785Z,22.90
2023-01-25T12:42:51.959Z,29.00
2023-01-25T12:48:00.143Z,26.40
2023-01-25T12:53:17.753Z,39.40
2023-01-25T12:58:49.746Z,34.20
2023-01-25T13:04:00.896Z,31.10
2023-01-25T13:09:10.186Z,28.30
2023-01-25T13:14:15.324Z,28.80
2023-01-25T13:19:38.039Z,36.40
2023-01-25T13:25:02.397Z,35.00
2023-01-25T13:30:32.582Z,31.40
2023-01-25T13:35:37.677Z,43.90
2023-01-25T13:40:40.301Z,47.70
2023-01-25T13:45:43.643Z,44.90
2023-01-25T13:50:50.804Z,49.60
2023-01-25T13:55:56.428Z,46.30
2023-01-25T14:01:07.716Z,55.10
2023-01-25T14:06:19.466Z,59.70
2023-01-25T14:11:24.044Z,50.70
2023-01-25T14:16:29.436Z,39.60
2023-01-25T14:21:31.809Z,52.70
2023-01-25T14:26:35.618Z,51.70
2023-01-25T14:31:39.782Z,53.70
2023-01-25T14:36:41.821Z,52.50
2023-01-25T14:41:59.240Z,42.90
2023-01-25T14:47:28.091Z,51.50
2023-01-25T14:52:30.470Z,47.30
2023-01-25T14:57:51.095Z,68.40
2023-01-25T15:03:00.424Z,62.50
2023-01-25T15:08:08.711Z,48.10
2023-01-25T15:13:15.455Z,58.60
2023-01-25T15:18:44.084Z,44.40
2023-01-25T15:23:47.920Z,49.50
2023-01-25T15:28:56.429Z,50.20
2023-01-25T15:34:01.044Z,54.40
2023-01-25T15:39:03.035Z,66.50
2023-01-25T15:44:05.329Z,38.50
2023-01-25T15:49:11.269Z,47.80
2023-01-25T15:54:13.688Z,41.40
2023-01-25T15:59:18.414Z,46.60
2023-01-25T16:04:20.432Z,53.00
2023-01-25T16:09:25.037Z,55.40
2023-01-25T16:14:30.860Z,46.40
2023-01-25T16:19:33.109Z,33.00
2023-01-25T16:24:39.209Z,31.50
2023-01-25T16:29:41.541Z,32.90
2023-01-25T16:34:43.573Z,34.40
2023-01-25T16:39:45.516Z,37.40
2023-01-25T16:44:48.485Z,42.10
2023-01-25T16:49:50.874Z,46.00
2023-01-25T16:54:52.752Z,41.90
2023-01-25T16:59:54.687Z,44.90
2023-01-25T17:04:56.779Z,48.30
2023-01-25T17:09:58.973Z,85.40
2023-01-25T17:15:00.983Z,54.90
2023-01-25T17:20:04.514Z,49.60
2023-01-25T17:25:06.931Z,52.40
2023-01-25T17:30:09.661Z,50.40
2023-01-25T17:35:11.991Z,48.60
2023-01-25T17:40:14.228Z,38.60
2023-01-25T17:45:16.446Z,35.90
2023-01-25T17:50:18.563Z,42.50
2023-01-25T17:55:20.615Z,38.00
2023-01-25T18:00:23.246Z,32.10
2023-01-25T18:05:28.835Z,37.30
2023-01-25T18:10:30.831Z,40.80
2023-01-25T18:15:33.136Z,39.20
2023-01-25T18:20:35.565Z,45.10
2023-01-25T18:25:37.750Z,33.90
2023-01-25T18:30:44.028Z,36.60
2023-01-25T18:35:48.098Z,28.80
2023-01-25T18:40:50.016Z,46.20
2023-01-25T18:45:56.755Z,40.00
2023-01-25T18:51:04.911Z,37.90
2023-01-25T18:56:11.286Z,43.40
2023-01-25T19:01:19.364Z,45.70
2023-01-25T19:06:21.340Z,50.40
2023-01-25T19:11:23.739Z,47.10
2023-01-25T19:16:25.983Z,59.00
2023-01-25T19:21:28.046Z,52.30
2023-01-25T19:26:30.201Z,51.50
2023-01-25T19:31:33.095Z,60.80
2023-01-25T19:36:37.912Z,65.00
2023-01-25T19:41:39.900Z,61.70
2023-01-25T19:46:42.601Z,62.60
2023-01-25T19:51:48.504Z,59.10
2023-01-25T19:56:50.915Z,70.50
2023-01-25T20:01:53.390Z,58.80
2023-01-25T20:06:55.368Z,83.30
2023-01-25T20:11:57.964Z,70.90
2023-01-25T20:17:00.070Z,64.70
2023-01-25T20:22:02.267Z,43.50
2023-01-25T20:27:04.535Z,51.60
2023-01-25T20:32:06.977Z,54.10
2023-01-25T20:37:09.209Z,35.90
2023-01-25T20:42:11.156Z,52.10
2023-01-25T20:47:13.087Z,53.10
2023-01-25T20:52:15.043Z,41.00
2023-01-25T20:57:16.973Z,49.40
2023-01-25T21:02:18.931Z,49.80
2023-01-25T21:07:21.086Z,49.40
2023-01-25T21:12:23.548Z,52.90
2023-01-25T21:17:25.930Z,47.20
2023-01-25T21:22:29.548Z,52.80
2023-01-25T21:27:31.522Z,38.50
2023-01-25T21:32:33.485Z,52.20
2023-01-25T21:37:35.492Z,52.40
2023-01-25T21:42:37.645Z,47.30
2023-01-25T21:47:39.676Z,48.10
2023-01-25T21:52:41.776Z,46.30
2023-01-25T21:57:47.107Z,48.60
2023-01-25T22:02:51.235Z,53.80
2023-01-25T22:07:53.364Z,47.40
2023-01-25T22:12:55.512Z,54.20
2023-01-25T22:17:57.449Z,48.70
2023-01-25T22:22:59.438Z,57.70
2023-01-25T22:28:04.467Z,53.10
2023-01-25T22:33:06.696Z,62.60
2023-01-25T22:38:08.602Z,48.10
2023-01-25T22:43:10.539Z,47.80
2023-01-25T22:48:12.530Z,37.70
2023-01-25T22:53:34.165Z,39.40
2023-01-25T22:58:37.598Z,51.90
2023-01-25T23:03:59.414Z,62.20
2023-01-25T23:09:04.673Z,46.00
2023-01-25T23:14:30.001Z,42.70
2023-01-25T23:19:31.883Z,49.90
2023-01-25T23:24:33.853Z,60.60
2023-01-25T23:29:36.953Z,60.30
2023-01-25T23:34:39.849Z,48.00
2023-01-25T23:39:41.746Z,55.00
2023-01-25T23:44:43.747Z,50.30
2023-01-25T23:49:45.664Z,52.10
2023-01-25T23:54:47.554Z,55.90
2023-01-25T23:59:49.516Z,54.50
